createdAt,value
2019-05-19T00:00:50.473Z,8.10
2019-05-19T00:03:18.206Z,8.00
2019-05-19T00:05:47.349Z,8.00
2019-05-19T00:08:15.439Z,7.90
2019-05-19T00:10:44.446Z,7.90
2019-05-19T00:13:12.108Z,7.90
2019-05-19T00:15:39.794Z,7.90
2019-05-19T00:18:07.749Z,7.90
2019-05-19T00:20:35.487Z,7.80
2019-05-19T00:23:03.333Z,7.80
2019-05-19T00:25:32.126Z,7.80
2019-05-19T00:27:59.823Z,7.90
2019-05-19T00:30:27.671Z,7.90
2019-05-19T00:32:55.372Z,7.90
2019-05-19T00:35:23.115Z,7.80
2019-05-19T00:37:51.238Z,7.90
2019-05-19T00:40:19.323Z,7.70
2019-05-19T00:42:46.962Z,7.60
2019-05-19T00:45:14.818Z,7.60
2019-05-19T00:47:42.540Z,7.40
2019-05-19T00:50:10.652Z,7.40
2019-05-19T00:52:38.529Z,7.50
2019-05-19T00:55:06.292Z,7.50
2019-05-19T00:57:34.316Z,7.50
2019-05-19T01:00:02.209Z,7.40
2019-05-19T01:02:29.960Z,7.40
2019-05-19T01:04:57.642Z,7.20
2019-05-19T01:07:25.418Z,7.10
2019-05-19T01:09:53.084Z,7.00
2019-05-19T01:12:20.723Z,7.00
2019-05-19T01:14:48.506Z,6.90
2019-05-19T01:17:16.143Z,6.90
2019-05-19T01:19:55.172Z,6.90
2019-05-19T01:22:13.367Z,6.90
2019-05-19T01:24:41.324Z,6.90
2019-05-19T01:27:09.099Z,6.90
2019-05-19T01:29:36.750Z,6.90
2019-05-19T01:32:04.478Z,7.00
2019-05-19T01:34:32.595Z,6.90
2019-05-19T01:37:00.244Z,6.80
2019-05-19T01:39:28.252Z,6.70
2019-05-19T01:41:56.095Z,6.60
2019-05-19T01:44:23.804Z,6.60
2019-05-19T01:46:51.763Z,6.60
2019-05-19T01:49:19.453Z,6.60
2019-05-19T01:51:47.103Z,6.50
2019-05-19T01:54:16.704Z,6.60
2019-05-19T01:56:44.264Z,6.60
2019-05-19T01:59:11.915Z,6.40
2019-05-19T02:01:39.556Z,6.40
2019-05-19T02:04:07.299Z,6.40
2019-05-19T02:06:35.357Z,6.40
2019-05-19T02:09:04.847Z,6.30
2019-05-19T02:11:32.529Z,6.30
2019-05-19T02:14:00.252Z,6.20
2019-05-19T02:16:28.035Z,6.20
2019-05-19T02:18:55.679Z,6.30
2019-05-19T02:21:23.340Z,6.20
2019-05-19T02:23:51.119Z,6.10
2019-05-19T02:26:18.760Z,6.10
2019-05-19T02:28:46.409Z,6.10
2019-05-19T02:31:14.195Z,6.10
2019-05-19T02:33:41.908Z,6.10
2019-05-19T02:36:09.567Z,6.10
2019-05-19T02:38:37.409Z,6.20
2019-05-19T02:41:05.458Z,6.30
2019-05-19T02:43:35.095Z,6.20
2019-05-19T02:46:04.005Z,6.20
2019-05-19T02:48:32.355Z,6.20
2019-05-19T02:51:01.072Z,6.20
2019-05-19T02:53:29.300Z,6.20
2019-05-19T02:55:57.826Z,6.20
2019-05-19T02:58:25.884Z,6.20
2019-05-19T03:00:53.860Z,6.10
2019-05-19T03:03:21.920Z,6.00
2019-05-19T03:05:49.692Z,5.80
2019-05-19T03:08:17.421Z,5.60
2019-05-19T03:10:45.176Z,5.70
2019-05-19T03:13:13.216Z,5.60
2019-05-19T03:15:40.876Z,5.60
2019-05-19T03:18:08.614Z,5.60
2019-05-19T03:20:36.635Z,5.70
2019-05-19T03:23:04.804Z,5.80
2019-05-19T03:25:32.459Z,5.90
2019-05-19T03:28:00.108Z,6.00
2019-05-19T03:30:29.529Z,5.90
2019-05-19T03:32:59.253Z,6.00
2019-05-19T03:35:26.971Z,6.00
2019-05-19T03:37:54.731Z,6.00
2019-05-19T03:40:22.379Z,6.00
2019-05-19T03:42:50.410Z,6.00
2019-05-19T03:45:18.368Z,6.00
2019-05-19T03:47:46.285Z,6.00
2019-05-19T03:50:14.100Z,6.00
2019-05-19T03:52:41.964Z,6.00
2019-05-19T03:55:09.683Z,6.10
2019-05-19T03:57:37.362Z,6.10
2019-05-19T04:00:05.980Z,6.10
2019-05-19T04:02:33.734Z,6.20
2019-05-19T04:05:01.392Z,6.10
2019-05-19T04:07:29.366Z,6.20
2019-05-19T04:09:57.328Z,6.20
2019-05-19T04:12:25.308Z,6.30
2019-05-19T04:14:53.278Z,6.40
2019-05-19T04:17:20.958Z,6.50
2019-05-19T04:19:48.640Z,6.50
2019-05-19T04:22:16.708Z,6.50
2019-05-19T04:24:45.164Z,6.70
2019-05-19T04:27:13.251Z,6.80
2019-05-19T04:29:41.032Z,7.00
2019-05-19T04:32:08.681Z,7.10
2019-05-19T04:34:36.329Z,7.30
2019-05-19T04:37:04.174Z,7.30
2019-05-19T04:39:32.094Z,7.30
2019-05-19T04:41:59.810Z,7.30
2019-05-19T04:44:27.938Z,7.50
2019-05-19T04:46:55.911Z,7.60
2019-05-19T04:49:23.569Z,7.80
2019-05-19T04:52:05.447Z,8.00
2019-05-19T04:54:20.647Z,8.10
2019-05-19T04:56:48.304Z,8.30
2019-05-19T04:59:16.405Z,8.30
2019-05-19T05:01:44.060Z,8.30
2019-05-19T05:04:11.974Z,8.40
2019-05-19T05:06:39.651Z,8.50
2019-05-19T05:09:07.379Z,8.70
2019-05-19T05:11:35.465Z,8.70
2019-05-19T05:14:03.121Z,8.90
2019-05-19T05:16:30.983Z,9.20
2019-05-19T05:18:58.704Z,9.20
2019-05-19T05:21:26.352Z,9.20
2019-05-19T05:23:54.135Z,9.30
2019-05-19T05:26:22.082Z,9.40
2019-05-19T05:28:49.828Z,9.50
2019-05-19T05:31:17.537Z,9.70
2019-05-19T05:33:45.195Z,9.80
2019-05-19T05:36:13.261Z,9.90
2019-05-19T05:38:41.219Z,10.10
2019-05-19T05:41:08.970Z,10.20
2019-05-19T05:43:36.638Z,10.20
2019-05-19T05:46:04.732Z,10.20
2019-05-19T05:48:32.393Z,10.20
2019-05-19T05:51:00.393Z,10.40
2019-05-19T05:53:28.460Z,10.40
2019-05-19T05:55:56.440Z,10.40
2019-05-19T05:58:24.091Z,10.60
2019-05-19T06:00:51.790Z,11.00
2019-05-19T06:03:19.544Z,11.20
2019-05-19T06:05:47.270Z,11.20
2019-05-19T06:08:15.056Z,11.30
2019-05-19T06:10:42.712Z,11.30
2019-05-19T06:13:10.371Z,11.40
2019-05-19T06:15:38.167Z,11.70
2019-05-19T06:18:06.154Z,11.80
2019-05-19T06:20:33.808Z,12.10
2019-05-19T06:23:01.570Z,12.40
2019-05-19T06:25:29.242Z,12.60
2019-05-19T06:27:57.223Z,12.60
2019-05-19T06:30:24.917Z,13.00
2019-05-19T06:32:54.260Z,13.30
2019-05-19T06:35:21.992Z,13.60
2019-05-19T06:37:49.968Z,14.00
2019-05-19T06:40:18.039Z,14.20
2019-05-19T06:42:45.829Z,14.20
2019-05-19T06:45:15.313Z,14.30
2019-05-19T06:47:43.373Z,14.30
2019-05-19T06:50:11.295Z,14.50
2019-05-19T06:52:38.948Z,14.70
2019-05-19T06:55:06.856Z,14.70
2019-05-19T07:00:02.212Z,14.90
2019-05-19T07:02:29.988Z,15.60
2019-05-19T07:04:57.644Z,15.60
2019-05-19T07:07:25.292Z,15.40
2019-05-19T07:09:58.591Z,15.20
2019-05-19T07:12:22.808Z,15.20
2019-05-19T07:14:50.785Z,15.20
2019-05-19T07:17:18.559Z,15.10
2019-05-19T07:19:46.468Z,15.00
2019-05-19T07:22:14.138Z,15.10
2019-05-19T07:24:41.828Z,15.30
2019-05-19T07:27:09.504Z,15.40
2019-05-19T07:29:37.501Z,15.70
2019-05-19T07:32:05.292Z,16.10
2019-05-19T07:34:32.996Z,16.20
2019-05-19T07:37:00.702Z,16.50
2019-05-19T07:39:28.477Z,16.80
2019-05-19T07:41:56.195Z,16.70
2019-05-19T07:44:23.857Z,17.00
2019-05-19T07:46:51.551Z,16.60
2019-05-19T07:49:19.252Z,16.60
2019-05-19T07:51:47.340Z,16.90
2019-05-19T07:54:15.023Z,16.90
2019-05-19T07:56:42.691Z,16.80
2019-05-19T07:59:10.391Z,16.70
2019-05-19T08:01:38.310Z,16.70
2019-05-19T08:04:06.143Z,16.90
2019-05-19T08:06:33.786Z,17.10
2019-05-19T08:09:01.585Z,17.30
2019-05-19T08:11:29.228Z,17.80
2019-05-19T08:13:56.918Z,18.00
2019-05-19T08:16:24.840Z,18.10
2019-05-19T08:18:52.498Z,18.00
2019-05-19T08:21:20.215Z,17.80
2019-05-19T08:23:59.746Z,17.70
2019-05-19T08:26:17.713Z,17.90
2019-05-19T08:28:45.359Z,18.40
2019-05-19T08:31:13.223Z,18.70
2019-05-19T08:33:40.930Z,18.60
2019-05-19T08:36:08.631Z,18.70
2019-05-19T08:38:36.310Z,18.60
2019-05-19T08:41:04.054Z,18.40
2019-05-19T08:43:31.802Z,18.30
2019-05-19T08:45:59.528Z,18.40
2019-05-19T08:48:27.190Z,18.50
2019-05-19T08:50:54.975Z,18.70
2019-05-19T08:53:22.629Z,18.70
2019-05-19T08:55:50.332Z,18.40
2019-05-19T08:58:18.018Z,18.50
2019-05-19T09:00:45.657Z,18.70
2019-05-19T09:03:13.435Z,18.70
2019-05-19T09:05:41.102Z,19.00
2019-05-19T09:08:08.750Z,19.10
2019-05-19T09:10:36.497Z,19.20
2019-05-19T09:13:04.145Z,19.40
2019-05-19T09:15:31.819Z,19.50
2019-05-19T09:17:59.493Z,19.80
2019-05-19T09:20:27.135Z,20.10
2019-05-19T09:22:54.923Z,20.60
2019-05-19T09:25:22.572Z,20.50
2019-05-19T09:27:50.298Z,20.80
2019-05-19T09:30:18.054Z,20.40
2019-05-19T09:32:45.729Z,20.70
2019-05-19T09:35:13.705Z,20.30
2019-05-19T09:37:41.542Z,20.70
2019-05-19T09:40:09.570Z,20.90
2019-05-19T09:42:37.302Z,21.20
2019-05-19T09:45:06.175Z,21.80
2019-05-19T09:47:33.919Z,21.80
2019-05-19T09:50:01.617Z,21.80
2019-05-19T09:52:29.294Z,21.90
2019-05-19T09:54:56.991Z,21.60
2019-05-19T09:57:24.753Z,21.80
2019-05-19T09:59:52.530Z,21.70
2019-05-19T10:02:20.351Z,21.70
2019-05-19T10:04:48.075Z,22.20
2019-05-19T10:07:15.754Z,21.70
2019-05-19T10:09:59.513Z,21.60
2019-05-19T10:12:27.231Z,21.60
2019-05-19T10:14:54.961Z,22.30
2019-05-19T10:17:22.651Z,22.70
2019-05-19T10:19:50.384Z,22.50
2019-05-19T10:22:18.057Z,23.30
2019-05-19T10:24:59.658Z,23.00
2019-05-19T10:27:15.296Z,22.30
2019-05-19T10:29:43.167Z,22.10
2019-05-19T10:32:10.813Z,22.00
2019-05-19T10:34:38.545Z,22.00
2019-05-19T10:37:06.330Z,21.90
2019-05-19T10:39:34.056Z,22.20
2019-05-19T10:42:01.987Z,22.20
2019-05-19T10:44:30.463Z,21.90
2019-05-19T10:46:58.262Z,21.90
2019-05-19T10:49:26.006Z,21.80
2019-05-19T10:51:54.054Z,21.80
2019-05-19T10:54:21.786Z,21.70
2019-05-19T10:56:49.501Z,21.70
2019-05-19T10:59:17.296Z,22.30
2019-05-19T11:01:45.023Z,22.50
2019-05-19T11:04:13.331Z,22.60
2019-05-19T11:06:41.141Z,22.40
2019-05-19T11:09:11.164Z,22.10
2019-05-19T11:11:38.825Z,22.20
2019-05-19T11:14:06.921Z,22.60
2019-05-19T11:16:34.563Z,22.90
2019-05-19T11:19:02.218Z,23.30
2019-05-19T11:21:29.922Z,23.20
2019-05-19T11:23:57.608Z,22.50
2019-05-19T11:26:25.508Z,23.10
2019-05-19T11:28:53.524Z,23.50
2019-05-19T11:31:21.333Z,23.60
2019-05-19T11:33:49.308Z,24.10
2019-05-19T11:36:17.419Z,24.20
2019-05-19T11:38:45.191Z,23.50
2019-05-19T11:41:12.925Z,23.00
2019-05-19T11:43:40.723Z,22.90
2019-05-19T11:46:08.366Z,23.00
2019-05-19T11:48:36.012Z,22.90
2019-05-19T11:51:03.864Z,23.00
2019-05-19T11:53:31.781Z,23.80
2019-05-19T11:56:06.599Z,24.40
2019-05-19T11:58:29.002Z,24.50
2019-05-19T12:00:56.643Z,24.60
2019-05-19T12:03:24.309Z,25.00
2019-05-19T12:05:52.780Z,25.20
2019-05-19T12:08:20.527Z,24.70
2019-05-19T12:10:48.188Z,24.70
2019-05-19T12:13:15.939Z,23.90
2019-05-19T12:15:43.643Z,23.20
2019-05-19T12:18:11.416Z,23.10
2019-05-19T12:20:39.188Z,22.80
2019-05-19T12:23:06.912Z,23.10
2019-05-19T12:25:34.639Z,23.70
2019-05-19T12:28:02.729Z,23.70
2019-05-19T12:30:30.404Z,24.30
2019-05-19T12:32:59.424Z,24.70
2019-05-19T12:35:27.293Z,24.90
2019-05-19T12:37:55.031Z,24.00
2019-05-19T12:40:22.916Z,23.60
2019-05-19T12:42:51.243Z,24.00
2019-05-19T12:45:19.325Z,24.80
2019-05-19T12:47:46.971Z,25.30
2019-05-19T12:50:15.318Z,25.30
2019-05-19T12:52:42.971Z,25.50
2019-05-19T12:55:10.936Z,25.60
2019-05-19T12:57:38.790Z,24.90
2019-05-19T13:00:06.591Z,24.40
2019-05-19T13:02:34.275Z,24.10
2019-05-19T13:05:05.363Z,24.00
2019-05-19T13:07:31.716Z,23.50
2019-05-19T13:09:59.365Z,23.30
2019-05-19T13:12:27.419Z,23.30
2019-05-19T13:14:55.070Z,23.60
2019-05-19T13:17:22.715Z,24.50
2019-05-19T13:19:50.709Z,24.10
2019-05-19T13:22:18.672Z,23.50
2019-05-19T13:24:46.388Z,23.70
2019-05-19T13:27:14.421Z,23.50
2019-05-19T13:29:42.908Z,23.80
2019-05-19T13:32:10.563Z,23.80
2019-05-19T13:34:38.339Z,23.70
2019-05-19T13:37:06.070Z,23.50
2019-05-19T13:39:33.712Z,23.80
2019-05-19T13:42:02.060Z,24.30
2019-05-19T13:44:29.723Z,24.80
2019-05-19T13:46:57.390Z,24.50
2019-05-19T13:49:25.424Z,24.80
2019-05-19T13:51:53.189Z,24.90
2019-05-19T13:54:20.886Z,24.90
2019-05-19T13:56:48.799Z,25.00
2019-05-19T13:59:16.529Z,25.10
2019-05-19T14:01:44.187Z,25.30
2019-05-19T14:04:12.035Z,24.40
2019-05-19T14:06:39.705Z,23.90
2019-05-19T14:09:09.187Z,23.60
2019-05-19T14:11:37.068Z,23.10
2019-05-19T14:14:04.771Z,22.70
2019-05-19T14:16:32.745Z,22.50
2019-05-19T14:19:00.780Z,23.10
2019-05-19T14:21:28.503Z,23.50
2019-05-19T14:23:56.193Z,24.00
2019-05-19T14:26:23.881Z,24.70
2019-05-19T14:28:51.523Z,25.10
2019-05-19T14:31:19.210Z,25.30
2019-05-19T14:33:46.863Z,25.50
2019-05-19T14:36:14.923Z,26.30
2019-05-19T14:39:05.109Z,25.70
2019-05-19T14:41:33.782Z,26.30
2019-05-19T14:44:01.682Z,26.80
2019-05-19T14:46:29.447Z,27.60
2019-05-19T14:48:57.239Z,28.00
2019-05-19T14:51:25.107Z,28.40
2019-05-19T14:53:52.908Z,28.80
2019-05-19T14:56:20.680Z,28.60
2019-05-19T14:58:48.599Z,27.80
2019-05-19T15:01:16.250Z,27.90
2019-05-19T15:03:44.043Z,27.90
2019-05-19T15:06:11.771Z,28.90
2019-05-19T15:08:39.491Z,29.00
2019-05-19T15:11:07.273Z,30.00
2019-05-19T15:13:35.003Z,29.70
2019-05-19T15:16:02.983Z,29.60
2019-05-19T15:18:30.752Z,28.50
2019-05-19T15:20:58.399Z,28.90
2019-05-19T15:23:26.060Z,29.40
2019-05-19T15:25:53.856Z,29.60
2019-05-19T15:28:21.752Z,29.50
2019-05-19T15:30:49.397Z,29.60
2019-05-19T15:33:17.181Z,30.00
2019-05-19T15:35:44.912Z,30.30
2019-05-19T15:38:12.564Z,29.50
2019-05-19T15:40:40.350Z,29.60
2019-05-19T15:43:08.000Z,29.40
2019-05-19T15:45:37.120Z,30.00
2019-05-19T15:48:04.903Z,29.70
2019-05-19T15:50:32.557Z,29.80
2019-05-19T15:53:00.503Z,28.50
2019-05-19T15:55:28.172Z,28.20
2019-05-19T15:57:55.868Z,27.00
2019-05-19T16:00:23.649Z,25.90
2019-05-19T16:02:51.636Z,25.00
2019-05-19T16:05:19.354Z,24.60
2019-05-19T16:07:47.012Z,24.40
2019-05-19T16:10:15.179Z,26.00
2019-05-19T16:12:42.831Z,24.90
2019-05-19T16:15:10.659Z,25.80
2019-05-19T16:17:38.355Z,25.80
2019-05-19T16:20:08.882Z,25.10
2019-05-19T16:22:36.563Z,24.00
2019-05-19T16:25:05.533Z,23.30
2019-05-19T16:27:33.234Z,22.90
2019-05-19T16:30:00.885Z,22.80
2019-05-19T16:32:28.573Z,22.80
2019-05-19T16:34:56.354Z,23.00
2019-05-19T16:37:24.028Z,23.90
2019-05-19T16:39:51.765Z,23.40
2019-05-19T16:42:19.654Z,22.90
2019-05-19T16:44:47.563Z,22.50
2019-05-19T16:47:15.211Z,22.30
2019-05-19T16:49:43.240Z,22.20
2019-05-19T16:52:10.901Z,22.00
2019-05-19T16:54:42.606Z,21.80
2019-05-19T16:57:09.718Z,21.70
2019-05-19T16:59:37.383Z,21.60
2019-05-19T17:02:05.042Z,21.50
2019-05-19T17:04:32.769Z,21.40
2019-05-19T17:07:02.976Z,21.40
2019-05-19T17:09:29.968Z,21.40
2019-05-19T17:11:57.615Z,21.40
2019-05-19T17:14:25.438Z,21.50
2019-05-19T17:16:53.215Z,21.50
2019-05-19T17:19:21.142Z,21.10
2019-05-19T17:21:48.873Z,21.00
2019-05-19T17:24:16.840Z,21.10
2019-05-19T17:26:44.500Z,21.00
2019-05-19T17:29:12.157Z,21.00
2019-05-19T17:31:40.232Z,21.10
2019-05-19T17:34:07.908Z,21.10
2019-05-19T17:36:35.600Z,21.10
2019-05-19T17:39:04.560Z,21.10
2019-05-19T17:41:32.251Z,20.90
2019-05-19T17:43:59.899Z,20.80
2019-05-19T17:46:27.672Z,20.70
2019-05-19T17:48:55.346Z,20.60
2019-05-19T17:51:22.999Z,20.40
2019-05-19T17:53:50.851Z,20.30
2019-05-19T17:56:18.611Z,20.10
2019-05-19T17:58:46.894Z,20.00
2019-05-19T18:01:14.682Z,20.00
2019-05-19T18:03:42.777Z,20.00
2019-05-19T18:06:10.432Z,19.90
2019-05-19T18:08:38.498Z,19.90
2019-05-19T18:11:06.148Z,19.90
2019-05-19T18:13:33.837Z,19.80
2019-05-19T18:16:01.687Z,19.80
2019-05-19T18:18:29.318Z,19.70
2019-05-19T18:20:57.056Z,19.50
2019-05-19T18:23:24.758Z,19.30
2019-05-19T18:25:52.401Z,19.30
2019-05-19T18:28:20.191Z,19.20
2019-05-19T18:30:47.830Z,19.20
2019-05-19T18:33:15.481Z,19.10
2019-05-19T18:35:43.334Z,19.00
2019-05-19T18:38:11.011Z,18.90
2019-05-19T18:40:38.924Z,18.80
2019-05-19T18:43:06.716Z,18.70
2019-05-19T18:45:34.610Z,18.70
2019-05-19T18:48:02.337Z,18.60
2019-05-19T18:50:30.117Z,18.50
2019-05-19T18:52:57.847Z,18.50
2019-05-19T18:55:25.513Z,18.50
2019-05-19T18:57:53.358Z,18.40
2019-05-19T19:00:22.545Z,18.40
2019-05-19T19:02:50.279Z,18.30
2019-05-19T19:05:18.049Z,18.30
2019-05-19T19:07:50.149Z,18.20
2019-05-19T19:10:17.859Z,18.20
2019-05-19T19:12:45.628Z,18.10
2019-05-19T19:15:13.655Z,18.10
2019-05-19T19:17:41.387Z,18.00
2019-05-19T19:20:09.139Z,18.00
2019-05-19T19:22:36.799Z,18.00
2019-05-19T19:25:05.663Z,18.00
2019-05-19T19:27:33.586Z,18.00
2019-05-19T19:30:03.934Z,17.90
2019-05-19T19:32:30.807Z,17.80
2019-05-19T19:34:58.463Z,17.70
2019-05-19T19:37:26.389Z,17.70
2019-05-19T19:39:54.076Z,17.60
2019-05-19T19:42:21.726Z,17.50
2019-05-19T19:44:49.411Z,17.50
2019-05-19T19:47:17.133Z,17.50
2019-05-19T19:49:45.033Z,17.40
2019-05-19T19:52:12.683Z,17.40
2019-05-19T19:54:40.467Z,17.30
2019-05-19T19:57:08.117Z,17.30
2019-05-19T19:59:36.044Z,17.20
2019-05-19T20:02:03.830Z,17.10
2019-05-19T20:04:31.489Z,17.10
2019-05-19T20:06:59.136Z,17.00
2019-05-19T20:09:26.834Z,17.00
2019-05-19T20:11:54.502Z,16.90
2019-05-19T20:14:22.448Z,16.90
2019-05-19T20:16:50.167Z,16.90
2019-05-19T20:19:17.833Z,16.70
2019-05-19T20:21:45.668Z,16.70
2019-05-19T20:24:13.321Z,16.60
2019-05-19T20:26:40.981Z,16.50
2019-05-19T20:29:08.749Z,16.40
2019-05-19T20:31:36.466Z,16.30
2019-05-19T20:34:04.111Z,16.30
2019-05-19T20:36:31.916Z,16.20
2019-05-19T20:38:59.550Z,16.10
2019-05-19T20:41:27.196Z,16.10
2019-05-19T20:43:54.976Z,15.80
2019-05-19T20:46:22.628Z,15.50
2019-05-19T20:48:50.284Z,15.40
2019-05-19T20:51:18.326Z,15.30
2019-05-19T20:53:45.984Z,15.30
2019-05-19T20:56:13.634Z,15.40
2019-05-19T20:58:41.659Z,15.40
2019-05-19T21:01:09.296Z,15.40
2019-05-19T21:03:36.949Z,15.40
2019-05-19T21:06:04.721Z,15.40
2019-05-19T21:08:32.371Z,15.30
2019-05-19T21:11:00.589Z,15.10
2019-05-19T21:13:28.617Z,15.00
2019-05-19T21:15:56.538Z,14.90
2019-05-19T21:18:24.534Z,14.80
2019-05-19T21:20:52.319Z,14.70
2019-05-19T21:23:20.226Z,14.60
2019-05-19T21:25:47.874Z,14.60
2019-05-19T21:28:15.898Z,14.60
2019-05-19T21:30:43.808Z,14.60
2019-05-19T21:33:11.474Z,14.70
2019-05-19T21:35:39.661Z,14.60
2019-05-19T21:38:07.304Z,14.60
2019-05-19T21:40:34.957Z,14.60
2019-05-19T21:43:04.623Z,14.60
2019-05-19T21:45:32.428Z,14.40
2019-05-19T21:48:00.326Z,14.20
2019-05-19T21:50:28.143Z,14.10
2019-05-19T21:52:56.214Z,14.00
2019-05-19T21:55:23.872Z,13.90
2019-05-19T21:57:51.593Z,13.80
2019-05-19T22:00:23.939Z,13.90
2019-05-19T22:02:51.586Z,13.90
2019-05-19T22:05:19.343Z,13.80
2019-05-19T22:08:01.039Z,13.80
2019-05-19T22:10:28.815Z,13.70
2019-05-19T22:12:56.467Z,13.60
2019-05-19T22:15:24.191Z,13.60
2019-05-19T22:17:51.956Z,13.70
2019-05-19T22:20:19.789Z,13.70
2019-05-19T22:22:47.455Z,13.70
2019-05-19T22:25:15.201Z,13.70
2019-05-19T22:27:43.048Z,13.80
2019-05-19T22:30:11.103Z,13.80
2019-05-19T22:32:38.750Z,13.80
2019-05-19T22:35:06.472Z,13.80
2019-05-19T22:37:34.195Z,13.90
2019-05-19T22:40:01.884Z,13.90
2019-05-19T22:42:29.612Z,13.90
2019-05-19T22:44:57.741Z,14.00
2019-05-19T22:47:25.680Z,14.10
2019-05-19T22:49:53.327Z,14.10
2019-05-19T22:52:21.258Z,14.00
2019-05-19T22:54:49.173Z,14.10
2019-05-19T22:57:18.117Z,14.30
2019-05-19T22:59:45.943Z,14.40
2019-05-19T23:02:13.976Z,14.60
2019-05-19T23:04:41.627Z,14.70
2019-05-19T23:07:09.544Z,14.60
2019-05-19T23:09:37.595Z,14.20
2019-05-19T23:12:05.341Z,13.90
2019-05-19T23:14:33.060Z,13.60
2019-05-19T23:17:01.143Z,13.40
2019-05-19T23:19:29.077Z,13.30
2019-05-19T23:21:56.728Z,13.30
2019-05-19T23:24:24.786Z,13.30
2019-05-19T23:26:52.435Z,13.30
2019-05-19T23:29:20.171Z,13.30
2019-05-19T23:31:47.913Z,13.30
2019-05-19T23:34:15.819Z,13.40
2019-05-19T23:36:43.761Z,13.30
2019-05-19T23:39:11.680Z,13.20
2019-05-19T23:41:39.716Z,13.20
2019-05-19T23:44:07.724Z,13.10
2019-05-19T23:46:35.367Z,13.20
2019-05-19T23:49:03.163Z,13.20
2019-05-19T23:51:30.832Z,13.10
2019-05-19T23:53:58.531Z,12.90
2019-05-19T23:56:26.264Z,12.90
2019-05-19T23:58:53.921Z,12.80
